Time;durP1;ratioP1;P1;durP2;ratioP2;P2;SDS_P1;SDS_P2;PMS_P1;PMS_P2;Temp;Humidity;BMP_temperature;BMP_pressure;BME280_temperature;BME280_humidity;BME280_pressure;Samples;Min_cycle;Max_cycle;Signal;HPM_P1;HPM_P2
2021/04/24 00:00:15;;;;;;;8.30;3.80;;;10.20;74.00;;;;;;5008784;28;20400;-48
2021/04/24 00:03:20;;;;;;;4.65;2.60;;;10.40;73.80;;;;;;5007669;28;20045;-49
2021/04/24 00:06:24;;;;;;;9.27;2.50;;;10.40;74.70;;;;;;5009309;28;20045;-51
2021/04/24 00:09:30;;;;;;;7.90;3.55;;;10.30;74.80;;;;;;5009111;28;20045;-55
2021/04/24 00:12:33;;;;;;;5.75;3.17;;;10.20;75.00;;;;;;5007920;28;20037;-50
2021/04/24 00:15:38;;;;;;;6.40;3.00;;;10.20;74.80;;;;;;5009004;28;20535;-48
2021/04/24 00:18:43;;;;;;;9.00;3.13;;;10.10;76.40;;;;;;5009738;28;20065;-52
2021/04/24 00:21:47;;;;;;;9.75;4.10;;;10.00;76.60;;;;;;5008577;28;20064;-53
2021/04/24 00:24:51;;;;;;;11.80;5.88;;;9.90;76.70;;;;;;5009592;28;20049;-50
2021/04/24 00:27:55;;;;;;;6.93;3.80;;;9.90;76.20;;;;;;4993087;28;20053;-49
2021/04/24 00:30:59;;;;;;;6.82;3.75;;;9.90;75.20;;;;;;5009104;28;20500;-49
2021/04/24 00:34:04;;;;;;;12.07;4.53;;;10.00;75.30;;;;;;5008896;28;20500;-52
2021/04/24 00:37:09;;;;;;;7.90;3.85;;;10.00;77.40;;;;;;5009563;28;20073;-50
2021/04/24 00:40:14;;;;;;;5.13;3.05;;;9.80;79.20;;;;;;5008633;28;20125;-52
2021/04/24 00:43:18;;;;;;;6.45;3.47;;;9.70;80.30;;;;;;5008248;28;20041;-52
2021/04/24 00:46:22;;;;;;;6.47;2.90;;;9.50;80.70;;;;;;5008850;28;20046;-50
2021/04/24 00:49:27;;;;;;;5.55;3.00;;;9.50;79.70;;;;;;5008108;28;20038;-51
2021/04/24 00:52:31;;;;;;;6.50;3.30;;;9.60;80.90;;;;;;5007983;28;20157;-49
2021/04/24 00:55:35;;;;;;;4.95;2.78;;;9.50;83.30;;;;;;5012712;28;20049;-51
2021/04/24 00:58:43;;;;;;;7.20;2.97;;;9.30;82.70;;;;;;5010024;28;20050;-50
2021/04/24 01:01:47;;;;;;;4.70;3.13;;;9.10;83.70;;;;;;5011881;28;20045;-47
2021/04/24 01:04:53;;;;;;;8.65;3.22;;;9.00;83.20;;;;;;5013637;28;20496;-49
2021/04/24 01:07:56;;;;;;;6.88;2.90;;;8.80;84.30;;;;;;5012353;28;20037;-49
2021/04/24 01:11:01;;;;;;;6.90;3.20;;;8.70;85.40;;;;;;5012141;28;20038;-53
2021/04/24 01:14:06;;;;;;;6.28;3.28;;;8.70;84.80;;;;;;5012084;28;20397;-52
2021/04/24 01:17:10;;;;;;;6.10;3.53;;;8.60;85.10;;;;;;5012755;28;20049;-53
2021/04/24 01:20:18;;;;;;;8.43;4.28;;;8.60;84.20;;;;;;5011159;28;20074;-53
2021/04/24 01:23:23;;;;;;;5.47;3.28;;;8.60;87.50;;;;;;5012027;28;20034;-51
2021/04/24 01:26:29;;;;;;;4.38;3.05;;;8.60;87.90;;;;;;5012656;28;20038;-50
2021/04/24 01:29:37;;;;;;;6.00;3.92;;;8.50;88.60;;;;;;5011805;28;20275;-48
2021/04/24 01:32:41;;;;;;;5.78;2.67;;;8.40;90.00;;;;;;5012011;28;20042;-48
2021/04/24 01:35:46;;;;;;;5.85;3.38;;;8.30;90.30;;;;;;5012646;28;20046;-50
2021/04/24 01:38:50;;;;;;;5.80;3.58;;;8.30;90.40;;;;;;5011874;28;20385;-49
2021/04/24 01:41:54;;;;;;;5.07;3.55;;;8.30;90.80;;;;;;5010791;28;20046;-50
2021/04/24 01:44:58;;;;;;;9.30;4.30;;;8.30;91.50;;;;;;5011874;28;20389;-50
2021/04/24 01:48:05;;;;;;;6.07;3.78;;;8.30;93.40;;;;;;5009096;28;20034;-52
2021/04/24 01:51:11;;;;;;;9.50;4.15;;;8.30;93.00;;;;;;5010970;28;20103;-47
2021/04/24 01:54:15;;;;;;;6.97;3.78;;;8.20;93.80;;;;;;5011684;28;20045;-51
2021/04/24 01:57:19;;;;;;;10.73;4.63;;;8.20;94.60;;;;;;5010663;28;20045;-52
2021/04/24 02:00:32;;;;;;;19.75;6.22;;;8.20;93.70;;;;;;5010839;28;20056;-49
2021/04/24 02:03:37;;;;;;;25.35;9.25;;;8.30;92.40;;;;;;5000179;28;20982;-48
2021/04/24 02:06:42;;;;;;;25.17;11.00;;;8.10;93.10;;;;;;4994835;28;20049;-48
2021/04/24 02:09:47;;;;;;;21.90;9.18;;;8.00;92.80;;;;;;5008141;28;20408;-52
2021/04/24 02:12:51;;;;;;;14.38;7.65;;;8.10;92.00;;;;;;5010273;28;20057;-49
2021/04/24 02:15:56;;;;;;;10.50;5.65;;;8.20;92.10;;;;;;5011244;28;20348;-53
2021/04/24 02:19:00;;;;;;;16.33;6.28;;;8.10;92.90;;;;;;5010207;28;20049;-49
2021/04/24 02:22:05;;;;;;;10.40;5.00;;;8.20;93.50;;;;;;5009868;28;20049;-49
2021/04/24 02:25:12;;;;;;;8.25;4.70;;;8.00;95.00;;;;;;5010866;28;20047;-48
2021/04/24 02:28:16;;;;;;;10.70;5.13;;;8.00;95.80;;;;;;5010499;28;20026;-48
2021/04/24 02:31:21;;;;;;;8.32;4.40;;;8.00;96.20;;;;;;5010146;28;20512;-49
2021/04/24 02:34:25;;;;;;;7.13;4.88;;;8.00;97.50;;;;;;5011029;28;20045;-48
2021/04/24 02:37:30;;;;;;;10.77;4.43;;;8.00;97.80;;;;;;5009456;28;20042;-48
2021/04/24 02:40:34;;;;;;;7.88;4.32;;;7.90;97.90;;;;;;5010064;28;20045;-48
2021/04/24 02:43:38;;;;;;;16.65;4.90;;;7.90;98.20;;;;;;5010689;28;20034;-49
2021/04/24 02:46:42;;;;;;;7.15;3.95;;;7.90;96.80;;;;;;4991204;28;20045;-51
2021/04/24 02:49:47;;;;;;;6.25;3.42;;;8.00;97.60;;;;;;5004745;28;20038;-47
2021/04/24 02:52:51;;;;;;;4.95;3.22;;;8.00;97.70;;;;;;5010137;28;20046;-48
2021/04/24 02:55:56;;;;;;;6.57;3.78;;;7.90;96.60;;;;;;4990458;28;20394;-48
2021/04/24 02:59:00;;;;;;;6.80;3.13;;;8.00;97.80;;;;;;5006554;28;20038;-50
2021/04/24 03:02:04;;;;;;;13.88;6.57;;;8.00;96.00;;;;;;5008753;28;20042;-52
2021/04/24 03:05:15;;;;;;;6.38;3.90;;;8.10;95.50;;;;;;5010516;28;20045;-48
2021/04/24 03:08:19;;;;;;;8.35;4.85;;;8.30;94.90;;;;;;5009495;28;20034;-48
2021/04/24 03:11:23;;;;;;;8.73;4.22;;;8.30;95.40;;;;;;5009572;28;20046;-48
2021/04/24 03:14:27;;;;;;;9.40;4.90;;;8.20;95.60;;;;;;5010322;28;20042;-48
2021/04/24 03:17:32;;;;;;;7.82;4.15;;;8.00;96.20;;;;;;5005648;28;20050;-48
2021/04/24 03:20:36;;;;;;;5.70;3.45;;;7.80;96.60;;;;;;5009255;28;20038;-48
2021/04/24 03:23:40;;;;;;;6.10;3.88;;;7.70;97.00;;;;;;5010375;28;20508;-48
2021/04/24 03:26:44;;;;;;;6.10;3.88;;;7.60;97.80;;;;;;5008676;28;20041;-49
2021/04/24 03:29:49;;;;;;;10.80;5.75;;;7.60;97.60;;;;;;5008785;28;20045;-49
2021/04/24 03:32:53;;;;;;;9.52;4.88;;;7.50;99.00;;;;;;5009407;28;20061;-53
2021/04/24 03:35:57;;;;;;;7.53;4.13;;;7.40;99.90;;;;;;5009571;28;20382;-51
2021/04/24 03:39:03;;;;;;;10.35;4.20;;;7.30;99.90;;;;;;5009005;28;20041;-48
2021/04/24 03:42:07;;;;;;;10.75;4.50;;;7.20;99.90;;;;;;5009272;28;20056;-50
2021/04/24 03:45:19;;;;;;;8.55;4.20;;;7.10;99.90;;;;;;4989820;28;20528;-48
2021/04/24 03:48:23;;;;;;;7.70;5.53;;;6.90;99.90;;;;;;5007189;28;20050;-49
2021/04/24 03:51:27;;;;;;;8.52;4.57;;;6.90;99.90;;;;;;5008698;28;20841;-49
2021/04/24 03:54:31;;;;;;;7.93;4.97;;;6.80;99.90;;;;;;5010048;28;20038;-48
2021/04/24 03:57:35;;;;;;;8.70;4.57;;;6.80;99.90;;;;;;5008287;28;20042;-48
2021/04/24 04:00:39;;;;;;;7.47;4.40;;;6.80;99.90;;;;;;5008732;28;20536;-50
2021/04/24 04:03:43;;;;;;;8.45;4.93;;;7.00;99.90;;;;;;5009985;28;20034;-49
2021/04/24 04:06:48;;;;;;;7.88;4.50;;;6.90;99.90;;;;;;5007983;28;20523;-48
2021/04/24 04:09:52;;;;;;;9.25;4.38;;;7.00;99.90;;;;;;5008870;28;20037;-47
2021/04/24 04:12:57;;;;;;;8.18;4.13;;;6.80;99.90;;;;;;5009440;28;20049;-48
2021/04/24 04:16:01;;;;;;;9.25;4.50;;;6.90;99.90;;;;;;5008259;28;20053;-50
2021/04/24 04:19:06;;;;;;;7.18;4.68;;;6.90;99.90;;;;;;5007607;28;20492;-49
2021/04/24 04:22:10;;;;;;;6.45;4.15;;;6.90;99.90;;;;;;5008632;28;20037;-48
2021/04/24 04:25:15;;;;;;;6.93;4.30;;;7.00;99.90;;;;;;5009018;28;20045;-48
2021/04/24 04:28:20;;;;;;;8.52;3.88;;;7.10;99.90;;;;;;5007852;28;20034;-48
2021/04/24 04:31:24;;;;;;;8.10;4.07;;;7.10;99.90;;;;;;5008955;28;20038;-49
2021/04/24 04:34:29;;;;;;;7.38;4.15;;;7.20;99.90;;;;;;5009013;28;20042;-51
2021/04/24 04:37:33;;;;;;;5.70;3.97;;;7.40;99.90;;;;;;5007960;28;20041;-49
2021/04/24 04:40:37;;;;;;;8.25;4.18;;;7.30;99.90;;;;;;5008441;28;20034;-48
2021/04/24 04:43:41;;;;;;;6.80;3.88;;;7.20;99.90;;;;;;4989783;28;20042;-48
2021/04/24 04:46:45;;;;;;;5.88;3.40;;;7.30;99.90;;;;;;5006611;28;20033;-48
2021/04/24 04:49:50;;;;;;;6.43;3.63;;;7.40;99.90;;;;;;5007780;28;20508;-48
2021/04/24 04:52:56;;;;;;;6.25;4.20;;;7.50;99.90;;;;;;5008754;28;20045;-48
2021/04/24 04:56:01;;;;;;;5.63;4.07;;;7.50;99.90;;;;;;5004380;28;20034;-48
2021/04/24 04:59:05;;;;;;;9.75;4.45;;;7.60;99.90;;;;;;5007982;28;20493;-48
2021/04/24 05:02:09;;;;;;;8.60;4.35;;;7.60;99.90;;;;;;5008913;28;20041;-49
2021/04/24 05:05:14;;;;;;;6.72;3.60;;;8.00;99.90;;;;;;5005549;28;20050;-48
2021/04/24 05:08:18;;;;;;;8.23;4.18;;;8.10;99.90;;;;;;5005039;28;20034;-48
2021/04/24 05:11:22;;;;;;;6.80;3.95;;;8.00;99.90;;;;;;5007654;28;20034;-49
2021/04/24 05:14:27;;;;;;;7.57;3.55;;;9.10;99.90;;;;;;5008649;28;20030;-49
2021/04/24 05:17:32;;;;;;;7.53;3.58;;;11.60;99.90;;;;;;5005739;28;20042;-48
2021/04/24 05:20:36;;;;;;;6.00;3.40;;;14.60;98.00;;;;;;5008045;28;20053;-48
2021/04/24 05:23:41;;;;;;;4.80;3.47;;;17.00;94.30;;;;;;5005904;28;20451;-48
2021/04/24 05:26:45;;;;;;;10.13;3.63;;;18.60;90.90;;;;;;5006332;28;20030;-49
2021/04/24 05:29:49;;;;;;;6.25;3.60;;;20.00;86.70;;;;;;5007290;28;20071;-53
2021/04/24 05:32:54;;;;;;;5.35;3.50;;;21.10;82.30;;;;;;5007817;28;20050;-49
2021/04/24 05:36:03;;;;;;;9.50;4.00;;;21.90;78.40;;;;;;5001237;28;20049;-52
2021/04/24 05:39:09;;;;;;;7.13;3.20;;;21.80;76.60;;;;;;5007117;28;20048;-48
2021/04/24 05:42:13;;;;;;;8.45;4.40;;;23.00;73.20;;;;;;5010872;28;20053;-53
2021/04/24 05:45:17;;;;;;;7.88;4.28;;;23.50;70.80;;;;;;5011236;28;20523;-49
2021/04/24 05:48:21;;;;;;;10.05;4.63;;;23.90;67.40;;;;;;5010971;28;20413;-52
2021/04/24 05:51:26;;;;;;;8.73;4.25;;;23.60;68.20;;;;;;5004751;28;20044;-50
2021/04/24 05:54:30;;;;;;;8.45;4.15;;;24.30;67.10;;;;;;4997270;28;20041;-49
2021/04/24 05:57:35;;;;;;;8.60;4.70;;;25.10;65.60;;;;;;4993695;28;20519;-48
2021/04/24 06:00:39;;;;;;;8.93;5.05;;;25.30;64.30;;;;;;4991040;28;20063;-48
2021/04/24 06:03:43;;;;;;;5.75;3.50;;;25.80;60.60;;;;;;4991416;28;20528;-49
2021/04/24 06:06:47;;;;;;;6.88;4.13;;;20.90;67.40;;;;;;4994069;28;20042;-49
2021/04/24 06:09:52;;;;;;;8.48;4.13;;;22.40;66.60;;;;;;4994455;28;20049;-49
2021/04/24 06:12:56;;;;;;;3.92;2.75;;;23.70;66.40;;;;;;5005891;28;20045;-49
2021/04/24 06:16:00;;;;;;;6.70;3.10;;;23.90;66.70;;;;;;5013226;28;20045;-49
2021/04/24 06:19:04;;;;;;;5.38;2.67;;;24.10;62.90;;;;;;4993232;28;20053;-54
2021/04/24 06:22:08;;;;;;;4.10;2.70;;;24.80;62.10;;;;;;4993233;28;20041;-49
2021/04/24 06:25:16;;;;;;;3.38;2.58;;;21.80;67.10;;;;;;4991154;28;20045;-53
2021/04/24 06:28:20;;;;;;;4.53;2.80;;;20.10;69.40;;;;;;4992639;28;20033;-49
2021/04/24 06:31:24;;;;;;;6.07;2.78;;;18.10;75.30;;;;;;4990006;28;20409;-49
2021/04/24 06:34:28;;;;;;;7.03;3.85;;;19.20;74.30;;;;;;5000796;28;20045;-49
2021/04/24 06:37:33;;;;;;;6.32;3.45;;;20.80;71.80;;;;;;4989990;28;20053;-48
2021/04/24 06:40:37;;;;;;;5.40;2.95;;;22.40;70.80;;;;;;4989207;28;20037;-47
2021/04/24 06:43:41;;;;;;;3.83;2.92;;;23.10;68.80;;;;;;4993926;28;20045;-50
2021/04/24 06:46:45;;;;;;;4.97;3.10;;;24.20;67.60;;;;;;5002495;28;20045;-49
2021/04/24 06:49:49;;;;;;;5.45;2.90;;;24.80;67.10;;;;;;5000809;28;20092;-49
2021/04/24 06:52:54;;;;;;;4.57;3.22;;;26.00;65.90;;;;;;5007397;28;20639;-51
2021/04/24 06:55:58;;;;;;;4.40;3.25;;;25.70;61.50;;;;;;5014501;28;20111;-48
2021/04/24 06:59:03;;;;;;;7.45;3.08;;;21.40;68.70;;;;;;5010476;28;20052;-48
2021/04/24 07:02:09;;;;;;;6.32;3.72;;;22.20;67.80;;;;;;5015155;28;20072;-49
2021/04/24 07:05:14;;;;;;;3.72;2.60;;;23.80;66.30;;;;;;5009405;28;20048;-49
2021/04/24 07:08:19;;;;;;;4.05;2.40;;;25.60;64.30;;;;;;4994381;28;20041;-48
2021/04/24 07:11:23;;;;;;;3.28;2.47;;;26.00;60.40;;;;;;4990951;28;20049;-49
2021/04/24 07:14:27;;;;;;;3.20;2.40;;;21.30;63.90;;;;;;5018236;28;20048;-47
2021/04/24 07:17:31;;;;;;;7.88;2.88;;;21.50;65.30;;;;;;5019072;28;20044;-47
2021/04/24 07:20:35;;;;;;;5.18;3.05;;;23.00;64.00;;;;;;5013838;28;20669;-47
2021/04/24 07:23:41;;;;;;;7.78;2.60;;;23.50;64.30;;;;;;5020932;28;20060;-48
2021/04/24 07:26:45;;;;;;;4.18;2.40;;;22.10;64.80;;;;;;4996801;28;20048;-49
2021/04/24 07:29:49;;;;;;;3.00;2.30;;;21.10;67.20;;;;;;5013462;28;20040;-47
2021/04/24 07:32:54;;;;;;;5.45;2.70;;;22.60;63.20;;;;;;5004203;28;20433;-47
2021/04/24 07:35:58;;;;;;;4.13;2.42;;;24.60;61.80;;;;;;4999329;28;20045;-49
2021/04/24 07:39:04;;;;;;;6.03;3.03;;;23.40;61.80;;;;;;4996206;28;20049;-48
2021/04/24 07:42:08;;;;;;;8.88;3.42;;;23.50;62.60;;;;;;4998864;28;20045;-50
2021/04/24 07:45:13;;;;;;;4.55;2.50;;;24.70;61.80;;;;;;5014759;28;20037;-48
2021/04/24 07:48:18;;;;;;;3.75;2.47;;;22.90;62.00;;;;;;5002071;28;20085;-47
2021/04/24 07:51:22;;;;;;;20.88;4.50;;;23.30;62.00;;;;;;5009306;28;20649;-50
2021/04/24 07:54:26;;;;;;;4.47;2.13;;;26.10;59.60;;;;;;5004937;28;20041;-49
2021/04/24 07:57:30;;;;;;;4.40;2.30;;;28.00;58.50;;;;;;5000613;28;20045;-48
2021/04/24 08:00:36;;;;;;;3.60;2.30;;;29.10;56.40;;;;;;5002816;28;20054;-50
2021/04/24 08:03:41;;;;;;;6.07;2.05;;;28.90;56.10;;;;;;5007836;28;20045;-48
2021/04/24 08:06:45;;;;;;;4.50;2.42;;;29.60;56.10;;;;;;5002028;28;20049;-48
2021/04/24 08:09:49;;;;;;;3.90;2.20;;;30.20;53.70;;;;;;5005980;28;20041;-49
2021/04/24 08:12:53;;;;;;;4.25;1.98;;;28.70;54.10;;;;;;5004106;28;20060;-49
2021/04/24 08:15:57;;;;;;;3.42;2.38;;;28.00;55.80;;;;;;5003278;28;20061;-48
2021/04/24 08:19:02;;;;;;;6.00;2.45;;;26.90;54.20;;;;;;5006557;28;20061;-47
2021/04/24 08:22:08;;;;;;;4.20;2.67;;;26.40;57.20;;;;;;5005359;28;20044;-49
2021/04/24 08:25:13;;;;;;;5.63;2.75;;;25.20;58.30;;;;;;5001128;28;20512;-48
2021/04/24 08:28:17;;;;;;;4.75;2.45;;;25.70;58.40;;;;;;5004611;28;20041;-49
2021/04/24 08:31:22;;;;;;;7.18;2.70;;;25.20;58.60;;;;;;5006960;28;20056;-49
2021/04/24 08:34:27;;;;;;;6.03;3.08;;;28.20;56.40;;;;;;5005111;28;20523;-48
2021/04/24 08:37:31;;;;;;;3.20;2.40;;;31.30;53.50;;;;;;5005143;28;20193;-51
2021/04/24 08:40:35;;;;;;;8.70;2.35;;;33.10;51.40;;;;;;5015511;28;20049;-48
2021/04/24 08:43:40;;;;;;;4.47;2.50;;;31.80;48.20;;;;;;5005037;28;20064;-48
2021/04/24 08:46:50;;;;;;;7.25;3.28;;;30.90;52.40;;;;;;5010676;28;20664;-48
2021/04/24 08:49:54;;;;;;;4.25;2.50;;;30.20;47.60;;;;;;5000532;28;20034;-48
2021/04/24 08:53:01;;;;;;;4.40;1.90;;;31.20;46.80;;;;;;5004395;28;20048;-50
2021/04/24 08:56:05;;;;;;;3.70;2.33;;;33.30;46.30;;;;;;5004711;28;20049;-49
2021/04/24 08:59:11;;;;;;;2.83;1.90;;;35.00;45.40;;;;;;5004560;28;20053;-49
2021/04/24 09:02:16;;;;;;;2.35;1.80;;;36.60;42.20;;;;;;5016184;28;20060;-48
2021/04/24 09:05:21;;;;;;;3.00;1.67;;;36.00;41.70;;;;;;5004486;28;20065;-49
2021/04/24 09:08:28;;;;;;;3.70;2.17;;;36.50;39.40;;;;;;5002286;28;20049;-48
2021/04/24 09:11:44;;;;;;;5.57;1.90;;;35.50;40.00;;;;;;5005586;28;20629;-48
2021/04/24 09:14:49;;;;;;;5.70;4.20;;;34.80;40.20;;;;;;4998784;28;20511;-48
2021/04/24 09:18:03;;;;;;;8.57;2.28;;;34.00;43.60;;;;;;5008707;28;20127;-48
2021/04/24 09:21:13;;;;;;;3.80;2.80;;;32.30;39.70;;;;;;5009847;28;20041;-48
2021/04/24 09:24:45;;;;;;;5.95;3.25;;;33.70;43.80;;;;;;5001309;28;20067;-48
2021/04/24 09:27:50;;;;;;;5.72;2.80;;;32.10;44.30;;;;;;5009608;28;20049;-48
2021/04/24 09:30:55;;;;;;;5.63;2.47;;;31.20;45.00;;;;;;5010683;28;20045;-48
2021/04/24 09:34:02;;;;;;;3.13;2.10;;;32.10;43.10;;;;;;5010530;28;20073;-49
2021/04/24 09:37:17;;;;;;;6.05;3.05;;;32.40;42.00;;;;;;5009665;28;20049;-50
2021/04/24 09:40:22;;;;;;;7.85;2.42;;;29.40;42.90;;;;;;4999266;28;20849;-49
2021/04/24 09:43:27;;;;;;;4.28;2.47;;;32.90;44.90;;;;;;5007673;28;20044;-49
2021/04/24 09:46:45;;;;;;;12.77;4.15;;;33.10;43.20;;;;;;5013270;28;20057;-48
2021/04/24 09:49:49;;;;;;;3.95;2.40;;;30.80;44.40;;;;;;5002343;28;20045;-49
2021/04/24 09:53:16;;;;;;;4.20;2.22;;;32.30;44.70;;;;;;5012411;28;20068;-49
2021/04/24 09:56:20;;;;;;;4.68;2.50;;;35.50;42.10;;;;;;5005603;28;20026;-49
2021/04/24 09:59:25;;;;;;;3.17;2.40;;;37.00;40.40;;;;;;4996682;28;20053;-50
2021/04/24 10:02:58;;;;;;;2.75;2.00;;;38.50;39.90;;;;;;5006460;28;21461;-50
2021/04/24 10:06:21;;;;;;;3.85;2.33;;;35.60;38.50;;;;;;4999092;28;20049;-49
2021/04/24 10:09:31;;;;;;;3.83;2.20;;;34.80;38.40;;;;;;4999614;28;20049;-47
2021/04/24 10:12:37;;;;;;;2.73;1.87;;;33.10;40.30;;;;;;5003940;28;20056;-47
2021/04/24 10:15:44;;;;;;;5.22;2.38;;;32.30;40.80;;;;;;5018815;28;20065;-50
2021/04/24 10:18:49;;;;;;;5.30;2.17;;;32.90;41.20;;;;;;5008388;28;20050;-49
2021/04/24 10:21:54;;;;;;;4.55;2.08;;;34.60;40.60;;;;;;5006712;28;20060;-49
2021/04/24 10:25:00;;;;;;;4.95;2.20;;;36.80;37.30;;;;;;5007348;28;20048;-49
2021/04/24 10:28:04;;;;;;;4.05;1.80;;;31.50;35.00;;;;;;4995713;28;20045;-48
2021/04/24 10:31:09;;;;;;;4.25;1.70;;;34.00;39.30;;;;;;5007021;28;20033;-51
2021/04/24 10:34:14;;;;;;;4.90;1.77;;;36.90;37.10;;;;;;5008641;28;20420;-50
2021/04/24 10:37:18;;;;;;;4.70;1.70;;;38.90;35.60;;;;;;4997155;28;20049;-48
2021/04/24 10:40:22;;;;;;;3.33;1.92;;;38.10;35.10;;;;;;5007188;28;20057;-49
2021/04/24 10:43:26;;;;;;;2.92;1.45;;;36.30;35.40;;;;;;5008711;28;20052;-49
2021/04/24 10:46:45;;;;;;;3.03;1.92;;;36.40;35.30;;;;;;4996468;28;20045;-49
2021/04/24 10:49:55;;;;;;;2.05;1.35;;;36.90;35.40;;;;;;4991625;28;20038;-48
2021/04/24 10:53:22;;;;;;;4.07;1.60;;;36.40;34.80;;;;;;5000827;28;20049;-50
2021/04/24 10:56:35;;;;;;;3.00;1.33;;;37.00;34.90;;;;;;5006645;28;21042;-49
2021/04/24 10:59:55;;;;;;;4.05;1.52;;;38.10;34.00;;;;;;4995286;28;20049;-52
2021/04/24 11:03:01;;;;;;;4.05;1.50;;;37.10;34.60;;;;;;4998522;28;20046;-50
2021/04/24 11:06:23;;;;;;;3.20;1.73;;;36.80;32.80;;;;;;4998120;28;20041;-51
2021/04/24 11:09:27;;;;;;;4.85;1.63;;;36.00;34.70;;;;;;4999145;28;20037;-48
2021/04/24 11:12:33;;;;;;;4.15;1.70;;;34.80;35.10;;;;;;5003218;28;20041;-48
2021/04/24 11:15:39;;;;;;;4.97;1.70;;;35.10;34.90;;;;;;5001884;28;20048;-51
2021/04/24 11:18:47;;;;;;;2.55;1.52;;;36.50;33.80;;;;;;5006075;28;20053;-49
2021/04/24 11:21:51;;;;;;;4.97;1.67;;;35.50;35.60;;;;;;5009218;28;20053;-48
2021/04/24 11:25:19;;;;;;;3.42;1.50;;;36.30;33.60;;;;;;4997434;28;20045;-52
2021/04/24 11:28:24;;;;;;;5.65;1.60;;;35.60;34.60;;;;;;4999422;28;20057;-47
2021/04/24 11:31:52;;;;;;;5.13;1.40;;;36.50;34.70;;;;;;4991438;28;20045;-48
2021/04/24 11:35:11;;;;;;;2.38;1.20;;;37.60;33.00;;;;;;5017794;28;20053;-48
2021/04/24 11:38:15;;;;;;;2.60;1.40;;;39.10;33.70;;;;;;5003192;28;20535;-50
2021/04/24 11:41:36;;;;;;;2.75;1.50;;;40.00;33.70;;;;;;5005126;28;20044;-49
2021/04/24 11:44:40;;;;;;;2.10;1.15;;;40.40;32.60;;;;;;5001213;28;20041;-47
2021/04/24 11:47:46;;;;;;;1.75;1.45;;;37.30;34.90;;;;;;5006113;28;20041;-47
2021/04/24 11:50:55;;;;;;;2.35;1.38;;;34.90;36.30;;;;;;4998420;28;20041;-47
2021/04/24 11:54:00;;;;;;;4.45;1.60;;;33.50;34.90;;;;;;5005274;28;20048;-49
2021/04/24 11:57:06;;;;;;;2.40;1.52;;;33.50;34.20;;;;;;4998741;28;20052;-49
2021/04/24 12:00:11;;;;;;;2.38;1.60;;;34.90;35.10;;;;;;5007386;28;20049;-48
2021/04/24 12:03:17;;;;;;;3.50;1.42;;;36.30;33.70;;;;;;5008880;28;20531;-49
2021/04/24 12:06:39;;;;;;;7.97;2.30;;;37.20;33.10;;;;;;5009002;28;20045;-51
2021/04/24 12:09:56;;;;;;;3.85;1.45;;;36.10;34.50;;;;;;5008766;28;20060;-53
2021/04/24 12:13:10;;;;;;;3.67;1.40;;;35.90;35.40;;;;;;4999561;28;20416;-52
2021/04/24 12:16:14;;;;;;;3.58;1.45;;;34.70;34.20;;;;;;5003205;28;20060;-51
2021/04/24 12:19:33;;;;;;;4.82;1.50;;;36.30;34.30;;;;;;5008825;28;20049;-52
2021/04/24 12:22:38;;;;;;;2.25;1.48;;;36.50;34.40;;;;;;5007885;28;20044;-51
2021/04/24 12:25:48;;;;;;;2.72;1.55;;;37.70;35.10;;;;;;5009065;28;20044;-48
2021/04/24 12:28:52;;;;;;;3.53;1.60;;;36.80;33.20;;;;;;5009525;28;20598;-51
2021/04/24 12:31:57;;;;;;;2.70;1.60;;;38.10;34.10;;;;;;5008321;28;20053;-54
2021/04/24 12:35:11;;;;;;;4.70;2.08;;;39.10;34.50;;;;;;5005083;28;20065;-54
2021/04/24 12:38:20;;;;;;;2.42;1.63;;;33.70;33.40;;;;;;4998972;28;20037;-52
2021/04/24 12:41:24;;;;;;;4.32;1.70;;;33.60;37.60;;;;;;4996135;28;20049;-51
2021/04/24 12:44:33;;;;;;;3.58;1.63;;;35.10;35.90;;;;;;4997090;28;20053;-50
2021/04/24 12:47:40;;;;;;;2.40;1.50;;;33.90;34.40;;;;;;5000131;28;20057;-53
2021/04/24 12:50:50;;;;;;;2.58;1.67;;;35.30;35.70;;;;;;5010340;28;20052;-50
2021/04/24 12:53:54;;;;;;;3.23;1.50;;;34.60;34.80;;;;;;5011085;28;20075;-49
2021/04/24 12:57:18;;;;;;;4.38;1.75;;;35.00;34.60;;;;;;5000476;28;20037;-52
2021/04/24 13:00:29;;;;;;;3.00;1.35;;;34.60;35.20;;;;;;5002721;28;20050;-52
2021/04/24 13:03:36;;;;;;;2.40;1.60;;;34.60;35.60;;;;;;5009853;28;20045;-53
2021/04/24 13:06:54;;;;;;;4.18;1.52;;;35.50;34.90;;;;;;5011333;28;20037;-49
2021/04/24 13:09:59;;;;;;;4.85;1.55;;;36.10;35.20;;;;;;5013007;28;20049;-53
2021/04/24 13:13:03;;;;;;;4.53;1.67;;;36.10;36.10;;;;;;5011457;28;20053;-52
2021/04/24 13:16:10;;;;;;;4.05;2.35;;;35.80;34.30;;;;;;5011273;28;20061;-53
2021/04/24 13:19:18;;;;;;;2.80;1.58;;;35.30;35.30;;;;;;5002937;28;20068;-50
2021/04/24 13:22:34;;;;;;;4.15;1.75;;;33.60;34.70;;;;;;5006596;28;20572;-50
2021/04/24 13:25:40;;;;;;;5.03;2.00;;;32.30;38.10;;;;;;5004430;28;20049;-54
2021/04/24 13:28:44;;;;;;;4.93;2.00;;;30.90;37.40;;;;;;5007973;28;20445;-54
2021/04/24 13:32:02;;;;;;;4.40;2.03;;;29.10;38.70;;;;;;4997174;28;20040;-52
2021/04/24 13:35:07;;;;;;;5.03;2.28;;;26.50;43.20;;;;;;5009423;28;20052;-53
2021/04/24 13:38:17;;;;;;;5.72;2.72;;;25.90;42.20;;;;;;5008772;28;20401;-51
2021/04/24 13:41:22;;;;;;;3.35;2.15;;;25.60;41.40;;;;;;5006160;28;20053;-50
2021/04/24 13:44:30;;;;;;;5.60;2.00;;;25.00;41.80;;;;;;5009759;28;20040;-54
2021/04/24 13:47:34;;;;;;;9.10;2.22;;;25.40;41.30;;;;;;5001208;28;20562;-49
2021/04/24 13:50:39;;;;;;;4.07;2.10;;;24.30;42.70;;;;;;4992288;28;20055;-54
2021/04/24 13:53:43;;;;;;;5.15;2.33;;;24.10;42.40;;;;;;5009544;28;20053;-54
2021/04/24 13:56:53;;;;;;;4.80;2.22;;;24.10;42.70;;;;;;5009275;28;20044;-53
2021/04/24 13:59:57;;;;;;;10.68;2.50;;;23.90;44.40;;;;;;5010669;28;20061;-52
2021/04/24 14:03:01;;;;;;;4.30;2.25;;;24.80;43.20;;;;;;5009765;28;20069;-54
2021/04/24 14:06:05;;;;;;;3.42;2.15;;;25.60;42.80;;;;;;4999898;28;20535;-51
2021/04/24 14:09:11;;;;;;;2.65;1.73;;;26.40;43.60;;;;;;4997828;28;20053;-54
2021/04/24 14:12:16;;;;;;;5.35;1.90;;;27.00;42.20;;;;;;5008657;28;20554;-54
2021/04/24 14:15:20;;;;;;;3.40;1.75;;;27.20;43.70;;;;;;5009378;28;20049;-49
2021/04/24 14:18:24;;;;;;;3.25;2.00;;;26.30;39.80;;;;;;5009807;28;20061;-54
2021/04/24 14:21:34;;;;;;;3.95;2.15;;;25.70;43.90;;;;;;5002011;28;20064;-50
2021/04/24 14:24:48;;;;;;;4.88;2.25;;;24.20;45.50;;;;;;5009115;28;20060;-51
2021/04/24 14:27:53;;;;;;;5.00;2.03;;;24.80;45.80;;;;;;5008550;28;20048;-53
2021/04/24 14:30:58;;;;;;;2.42;1.60;;;25.30;44.20;;;;;;5010921;28;20057;-53
2021/04/24 14:34:03;;;;;;;4.05;2.30;;;25.70;45.00;;;;;;5004024;28;20042;-53
2021/04/24 14:37:08;;;;;;;3.13;1.98;;;25.90;44.00;;;;;;5004453;28;20059;-54
2021/04/24 14:40:13;;;;;;;3.55;2.10;;;25.90;45.00;;;;;;5002688;28;20045;-52
2021/04/24 14:43:17;;;;;;;5.97;1.90;;;25.80;44.30;;;;;;4999919;28;20049;-52
2021/04/24 14:46:22;;;;;;;4.15;1.80;;;25.80;43.80;;;;;;5006667;28;20057;-51
2021/04/24 14:49:28;;;;;;;6.60;1.88;;;25.60;44.10;;;;;;5005262;28;20634;-50
2021/04/24 14:52:32;;;;;;;4.63;1.83;;;25.40;45.10;;;;;;5003544;28;20040;-53
2021/04/24 14:55:36;;;;;;;5.93;2.10;;;25.40;44.50;;;;;;4995045;28;20053;-52
2021/04/24 14:58:40;;;;;;;4.75;2.63;;;25.50;45.10;;;;;;5008729;28;20393;-51
2021/04/24 15:01:44;;;;;;;4.03;1.90;;;25.40;45.30;;;;;;4993531;28;20033;-49
2021/04/24 15:04:49;;;;;;;3.83;2.03;;;25.20;46.50;;;;;;4993336;28;20045;-53
2021/04/24 15:07:53;;;;;;;3.38;1.95;;;25.00;45.20;;;;;;4996477;28;20350;-50
2021/04/24 15:10:58;;;;;;;3.40;1.88;;;24.80;45.80;;;;;;4991471;28;20481;-51
2021/04/24 15:14:03;;;;;;;3.83;1.77;;;24.60;45.40;;;;;;4991059;28;20466;-47
2021/04/24 15:17:09;;;;;;;4.38;1.90;;;24.60;46.80;;;;;;4997070;28;20041;-52
2021/04/24 15:20:14;;;;;;;6.43;2.25;;;24.60;45.90;;;;;;4994887;28;20543;-48
2021/04/24 15:23:19;;;;;;;8.32;2.33;;;24.50;45.70;;;;;;4995506;28;20065;-53
2021/04/24 15:26:24;;;;;;;9.25;2.80;;;24.30;45.90;;;;;;4993380;28;20041;-52
2021/04/24 15:29:31;;;;;;;17.33;2.42;;;24.20;46.90;;;;;;4994718;28;20044;-48
2021/04/24 15:32:35;;;;;;;5.90;2.50;;;24.20;46.50;;;;;;4992631;28;20405;-49
2021/04/24 15:35:40;;;;;;;8.15;2.65;;;24.10;47.30;;;;;;4992403;28;20052;-50
2021/04/24 15:38:44;;;;;;;4.38;2.50;;;24.10;47.20;;;;;;4992534;28;20065;-50
2021/04/24 15:41:48;;;;;;;5.03;2.55;;;23.90;46.40;;;;;;4989628;28;20519;-51
2021/04/24 15:44:53;;;;;;;6.70;2.78;;;23.80;47.50;;;;;;4996903;28;20049;-51
2021/04/24 15:47:58;;;;;;;13.38;4.22;;;23.80;48.00;;;;;;4992865;28;20050;-51
2021/04/24 15:51:02;;;;;;;8.07;3.05;;;23.80;47.20;;;;;;4990528;28;20037;-51
2021/04/24 15:54:06;;;;;;;6.38;2.50;;;23.70;48.00;;;;;;4991474;28;20041;-53
2021/04/24 15:57:12;;;;;;;10.27;3.42;;;23.60;48.30;;;;;;4991752;28;20049;-52
2021/04/24 16:00:18;;;;;;;22.67;4.25;;;23.40;47.20;;;;;;4989617;28;20037;-51
2021/04/24 16:03:22;;;;;;;6.05;2.65;;;23.30;47.60;;;;;;4989735;28;20041;-53
2021/04/24 16:06:26;;;;;;;24.52;6.00;;;23.00;46.50;;;;;;4989872;28;20485;-50
2021/04/24 16:09:31;;;;;;;5.95;2.97;;;23.20;49.50;;;;;;4992516;28;20048;-49